createdAt,value
2018-12-21T00:01:49.248Z,84.70
2018-12-21T00:04:16.206Z,85.00
2018-12-21T00:06:43.162Z,85.00
2018-12-21T00:09:10.263Z,85.10
2018-12-21T00:11:37.166Z,85.00
2018-12-21T00:14:04.111Z,85.10
2018-12-21T00:16:31.077Z,85.30
2018-12-21T00:18:58.047Z,85.40
2018-12-21T00:21:25.036Z,85.20
2018-12-21T00:23:52.022Z,84.90
2018-12-21T00:26:18.983Z,84.90
2018-12-21T00:28:45.937Z,85.30
2018-12-21T00:31:18.807Z,85.20
2018-12-21T00:33:51.825Z,85.50
2018-12-21T00:36:24.716Z,85.20
2018-12-21T00:38:57.381Z,84.90
2018-12-21T00:41:24.034Z,85.20
2018-12-21T00:44:10.692Z,85.20
2018-12-21T00:46:39.765Z,85.30
2018-12-21T00:49:06.708Z,85.00
2018-12-21T00:51:33.663Z,85.10
2018-12-21T00:54:00.656Z,85.30
2018-12-21T00:56:27.655Z,85.30
2018-12-21T00:58:54.589Z,85.60
2018-12-21T01:01:21.560Z,85.30
2018-12-21T01:03:48.597Z,86.30
2018-12-21T01:06:15.602Z,85.00
2018-12-21T01:08:42.544Z,84.80
2018-12-21T01:11:09.505Z,84.50
2018-12-21T01:13:37.017Z,84.30
2018-12-21T01:16:03.985Z,84.20
2018-12-21T01:18:30.940Z,84.20
2018-12-21T01:20:57.925Z,84.10
2018-12-21T01:23:24.960Z,83.80
2018-12-21T01:25:52.939Z,83.90
2018-12-21T01:28:20.025Z,83.70
2018-12-21T01:30:46.983Z,83.50
2018-12-21T01:33:13.940Z,83.60
2018-12-21T01:35:41.221Z,83.60
2018-12-21T01:38:08.179Z,84.40
2018-12-21T01:40:35.133Z,83.60
2018-12-21T01:43:02.309Z,83.60
2018-12-21T01:45:29.257Z,83.60
2018-12-21T01:47:56.241Z,83.50
2018-12-21T01:50:23.202Z,83.50
2018-12-21T01:52:50.159Z,83.20
2018-12-21T01:55:17.111Z,83.30
2018-12-21T01:57:44.101Z,83.20
2018-12-21T02:00:11.064Z,82.90
2018-12-21T02:02:38.104Z,82.80
2018-12-21T02:05:05.076Z,82.50
2018-12-21T02:07:32.087Z,82.70
2018-12-21T02:09:59.043Z,82.70
2018-12-21T02:12:26.000Z,82.60
2018-12-21T02:14:52.962Z,82.90
2018-12-21T02:17:19.904Z,82.80
2018-12-21T02:19:46.878Z,82.90
2018-12-21T02:22:13.847Z,83.10
2018-12-21T02:24:40.816Z,83.00
2018-12-21T02:27:07.781Z,83.00
2018-12-21T02:29:34.737Z,83.00
2018-12-21T02:32:01.684Z,83.00
2018-12-21T02:34:28.650Z,83.00
2018-12-21T02:36:55.783Z,83.00
2018-12-21T02:39:22.738Z,83.10
2018-12-21T02:41:49.673Z,82.80
2018-12-21T02:44:16.637Z,82.60
2018-12-21T02:46:43.614Z,82.60
2018-12-21T02:49:10.575Z,82.40
2018-12-21T02:51:37.915Z,82.40
2018-12-21T02:54:04.908Z,82.50
2018-12-21T02:56:31.871Z,82.50
2018-12-21T02:58:58.825Z,82.60
2018-12-21T03:01:25.821Z,82.30
2018-12-21T03:03:52.776Z,82.40
2018-12-21T03:06:19.840Z,82.40
2018-12-21T03:08:46.802Z,82.20
2018-12-21T03:11:13.812Z,82.20
2018-12-21T03:13:40.793Z,82.20
2018-12-21T03:16:07.730Z,82.20
2018-12-21T03:18:34.731Z,82.40
2018-12-21T03:21:01.681Z,82.50
2018-12-21T03:23:28.630Z,82.40
2018-12-21T03:25:55.639Z,82.60
2018-12-21T03:28:22.672Z,82.40
2018-12-21T03:30:49.601Z,82.70
2018-12-21T03:33:16.582Z,82.90
2018-12-21T03:35:43.599Z,82.90
2018-12-21T03:38:11.132Z,83.10
2018-12-21T03:40:38.112Z,82.90
2018-12-21T03:43:05.097Z,82.90
2018-12-21T03:45:32.072Z,83.20
2018-12-21T03:47:59.033Z,83.50
2018-12-21T03:50:25.972Z,83.30
2018-12-21T03:52:52.923Z,83.40
2018-12-21T03:55:19.937Z,83.30
2018-12-21T03:57:46.887Z,83.40
2018-12-21T04:00:13.863Z,84.10
2018-12-21T04:02:40.831Z,83.50
2018-12-21T04:05:08.071Z,83.50
2018-12-21T04:07:35.025Z,83.50
2018-12-21T04:10:02.036Z,83.40
2018-12-21T04:12:28.981Z,83.60
2018-12-21T04:14:55.937Z,83.90
2018-12-21T04:17:22.909Z,84.00
2018-12-21T04:19:49.901Z,83.50
2018-12-21T04:22:16.862Z,84.40
2018-12-21T04:24:43.824Z,83.70
2018-12-21T04:27:10.762Z,83.80
2018-12-21T04:29:37.732Z,84.10
2018-12-21T04:32:04.680Z,84.20
2018-12-21T04:34:31.630Z,84.50
2018-12-21T04:36:58.588Z,84.20
2018-12-21T04:39:25.745Z,84.50
2018-12-21T04:41:52.753Z,84.30
2018-12-21T04:44:19.688Z,84.30
2018-12-21T04:46:46.660Z,84.40
2018-12-21T04:49:13.605Z,84.40
2018-12-21T04:51:40.565Z,84.40
2018-12-21T04:54:07.552Z,84.50
2018-12-21T04:56:34.487Z,84.20
2018-12-21T04:59:01.433Z,84.20
2018-12-21T05:01:28.462Z,84.30
2018-12-21T05:03:55.443Z,84.60
2018-12-21T05:06:22.412Z,84.30
2018-12-21T05:08:49.434Z,83.80
2018-12-21T05:11:16.393Z,83.50
2018-12-21T05:13:43.341Z,83.30
2018-12-21T05:16:10.308Z,83.20
2018-12-21T05:18:37.267Z,82.80
2018-12-21T05:21:04.298Z,82.80
2018-12-21T05:23:31.185Z,82.70
2018-12-21T05:25:58.372Z,82.40
2018-12-21T05:28:25.629Z,82.70
2018-12-21T05:30:52.590Z,82.50
2018-12-21T05:33:19.568Z,82.60
2018-12-21T05:35:46.560Z,82.10
2018-12-21T05:38:13.526Z,81.80
2018-12-21T05:40:40.709Z,81.60
2018-12-21T05:43:07.688Z,81.20
2018-12-21T05:45:34.716Z,81.00
2018-12-21T05:48:01.694Z,80.60
2018-12-21T05:50:28.654Z,80.50
2018-12-21T05:53:00.790Z,80.70
2018-12-21T05:55:22.577Z,80.40
2018-12-21T05:57:49.560Z,80.40
2018-12-21T06:00:16.578Z,80.30
2018-12-21T06:02:43.546Z,80.10
2018-12-21T06:05:10.502Z,80.10
2018-12-21T06:07:37.457Z,79.80
2018-12-21T06:10:04.521Z,79.70
2018-12-21T06:12:31.494Z,79.80
2018-12-21T06:14:58.507Z,79.50
2018-12-21T06:17:25.470Z,79.50
2018-12-21T06:19:52.422Z,79.50
2018-12-21T06:22:19.608Z,79.20
2018-12-21T06:24:46.632Z,79.30
2018-12-21T06:27:13.617Z,78.90
2018-12-21T06:29:40.604Z,79.10
2018-12-21T06:32:07.541Z,79.10
2018-12-21T06:34:34.496Z,79.70
2018-12-21T06:37:01.500Z,79.00
2018-12-21T06:39:28.458Z,79.00
2018-12-21T06:41:56.101Z,78.90
2018-12-21T06:44:23.100Z,79.00
2018-12-21T06:46:50.039Z,79.00
2018-12-21T06:49:17.047Z,79.50
2018-12-21T06:51:44.009Z,79.90
2018-12-21T06:54:10.960Z,79.80
2018-12-21T06:56:37.964Z,80.80
2018-12-21T06:59:04.950Z,82.10
2018-12-21T07:01:31.901Z,81.50
2018-12-21T07:03:58.859Z,82.50
2018-12-21T07:06:25.824Z,82.60
2018-12-21T07:08:52.795Z,83.20
2018-12-21T07:11:19.744Z,84.20
2018-12-21T07:13:46.771Z,85.10
2018-12-21T07:16:13.725Z,85.30
2018-12-21T07:18:40.740Z,83.30
2018-12-21T07:21:07.727Z,83.90
2018-12-21T07:23:34.673Z,84.70
2018-12-21T07:26:01.620Z,86.00
2018-12-21T07:28:28.583Z,86.20
2018-12-21T07:30:55.575Z,85.70
2018-12-21T07:33:22.534Z,86.00
2018-12-21T07:35:49.510Z,86.30
2018-12-21T07:38:16.484Z,86.70
2018-12-21T07:40:43.440Z,86.10
2018-12-21T07:43:10.624Z,86.10
2018-12-21T07:45:37.592Z,86.60
2018-12-21T07:48:04.545Z,86.50
2018-12-21T07:50:31.514Z,87.30
2018-12-21T07:52:58.460Z,86.60
2018-12-21T07:55:25.404Z,87.80
2018-12-21T07:57:52.375Z,88.00
2018-12-21T08:00:19.371Z,88.70
2018-12-21T08:02:46.327Z,88.60
2018-12-21T08:05:13.351Z,89.00
2018-12-21T08:07:40.301Z,89.60
2018-12-21T08:10:13.573Z,90.00
2018-12-21T08:12:40.577Z,90.00
2018-12-21T08:15:07.603Z,90.10
2018-12-21T08:17:34.572Z,89.20
2018-12-21T08:20:01.553Z,90.00
2018-12-21T08:22:28.531Z,90.00
2018-12-21T08:24:55.483Z,90.10
2018-12-21T08:27:22.457Z,90.00
2018-12-21T08:29:49.395Z,89.70
2018-12-21T08:32:16.371Z,89.60
2018-12-21T08:34:43.353Z,88.60
2018-12-21T08:37:10.313Z,89.30
2018-12-21T08:39:37.274Z,89.80
2018-12-21T08:42:04.224Z,89.30
2018-12-21T08:44:31.692Z,89.00
2018-12-21T08:46:58.720Z,89.50
2018-12-21T08:49:25.687Z,89.30
2018-12-21T08:51:52.629Z,90.00
2018-12-21T08:54:19.624Z,89.80
2018-12-21T08:56:46.552Z,89.90
2018-12-21T08:59:13.503Z,90.00
2018-12-21T09:01:40.476Z,90.30
2018-12-21T09:04:07.440Z,90.30
2018-12-21T09:06:34.414Z,90.00
2018-12-21T09:09:01.406Z,90.10
2018-12-21T09:11:28.407Z,90.10
2018-12-21T09:13:55.362Z,90.30
2018-12-21T09:16:22.379Z,90.00
2018-12-21T09:18:49.374Z,90.10
2018-12-21T09:21:16.332Z,90.10
2018-12-21T09:23:43.355Z,90.10
2018-12-21T09:26:10.312Z,90.00
2018-12-21T09:28:37.313Z,90.00
2018-12-21T09:31:04.309Z,90.10
2018-12-21T09:33:31.289Z,89.40
2018-12-21T09:35:58.247Z,89.20
2018-12-21T09:38:25.243Z,89.70
2018-12-21T09:40:52.189Z,89.10
2018-12-21T09:43:19.143Z,88.90
2018-12-21T09:45:46.331Z,89.10
2018-12-21T09:48:13.267Z,89.30
2018-12-21T09:50:40.304Z,89.00
2018-12-21T09:53:07.293Z,89.00
2018-12-21T09:55:34.276Z,88.50
2018-12-21T09:58:01.331Z,88.90
2018-12-21T10:00:28.325Z,89.00
2018-12-21T10:02:55.342Z,89.30
2018-12-21T10:05:22.309Z,89.10
2018-12-21T10:07:49.320Z,89.30
2018-12-21T10:10:16.347Z,90.00
2018-12-21T10:12:43.304Z,89.30
2018-12-21T10:15:10.316Z,89.30
2018-12-21T10:17:37.323Z,89.40
2018-12-21T10:20:06.305Z,89.80
2018-12-21T10:22:33.363Z,90.00
2018-12-21T10:25:00.865Z,89.70
2018-12-21T10:27:27.841Z,90.00
2018-12-21T10:29:55.451Z,90.00
2018-12-21T10:32:22.484Z,90.00
2018-12-21T10:34:49.582Z,89.90
2018-12-21T10:37:16.877Z,89.70
2018-12-21T10:39:43.993Z,90.30
2018-12-21T10:42:10.948Z,91.10
2018-12-21T10:44:38.005Z,90.90
2018-12-21T10:47:05.507Z,90.70
2018-12-21T10:49:32.512Z,90.60
2018-12-21T10:51:59.632Z,90.50
2018-12-21T10:54:27.172Z,90.20
2018-12-21T10:56:53.741Z,90.20
2018-12-21T10:59:21.161Z,90.70
2018-12-21T11:01:47.984Z,90.90
2018-12-21T11:04:14.995Z,90.50
2018-12-21T11:06:42.049Z,90.90
2018-12-21T11:09:09.004Z,91.30
2018-12-21T11:11:36.247Z,91.20
2018-12-21T11:14:03.220Z,91.60
2018-12-21T11:16:30.829Z,91.90
2018-12-21T11:18:57.885Z,92.10
2018-12-21T11:21:24.832Z,92.00
2018-12-21T11:23:51.788Z,92.10
2018-12-21T11:26:18.756Z,91.80
2018-12-21T11:28:46.145Z,91.90
2018-12-21T11:31:13.073Z,92.00
2018-12-21T11:33:40.021Z,91.80
2018-12-21T11:36:07.007Z,91.70
2018-12-21T11:38:33.975Z,91.50
2018-12-21T11:41:00.938Z,91.50
2018-12-21T11:43:28.013Z,91.50
2018-12-21T11:45:54.881Z,91.70
2018-12-21T11:48:22.115Z,91.40
2018-12-21T11:50:49.068Z,91.50
2018-12-21T11:53:16.020Z,91.60
2018-12-21T11:55:43.011Z,91.60
2018-12-21T11:58:10.015Z,91.80
2018-12-21T12:00:36.960Z,91.70
2018-12-21T12:03:04.111Z,91.70
2018-12-21T12:05:31.225Z,91.60
2018-12-21T12:07:58.402Z,91.80
2018-12-21T12:10:25.539Z,91.80
2018-12-21T12:12:53.027Z,91.90
2018-12-21T12:15:20.064Z,91.90
2018-12-21T12:17:47.067Z,91.80
2018-12-21T12:20:14.040Z,91.70
2018-12-21T12:22:41.010Z,91.80
2018-12-21T12:25:07.986Z,91.80
2018-12-21T12:27:34.968Z,91.80
2018-12-21T12:30:01.937Z,91.70
2018-12-21T12:32:28.960Z,91.70
2018-12-21T12:34:55.921Z,91.70
2018-12-21T12:37:22.880Z,91.70
2018-12-21T12:39:49.883Z,91.70
2018-12-21T12:42:17.023Z,91.70
2018-12-21T12:44:43.989Z,91.70
2018-12-21T12:47:10.952Z,91.70
2018-12-21T12:49:38.109Z,91.70
2018-12-21T12:52:05.048Z,91.70
2018-12-21T12:54:31.980Z,91.80
2018-12-21T12:56:58.982Z,91.70
2018-12-21T12:59:26.124Z,91.70
2018-12-21T13:01:53.078Z,91.60
2018-12-21T13:04:20.044Z,91.60
2018-12-21T13:06:47.096Z,91.70
2018-12-21T13:09:14.279Z,91.70
2018-12-21T13:11:41.320Z,91.70
2018-12-21T13:14:08.438Z,91.70
2018-12-21T13:16:35.363Z,91.70
2018-12-21T13:19:02.352Z,92.00
2018-12-21T13:21:29.280Z,91.80
2018-12-21T13:23:56.235Z,91.70
2018-12-21T13:26:23.214Z,91.80
2018-12-21T13:28:50.177Z,91.90
2018-12-21T13:31:17.131Z,91.90
2018-12-21T13:33:44.088Z,92.00
2018-12-21T13:36:11.101Z,92.10
2018-12-21T13:38:38.073Z,92.10
2018-12-21T13:41:05.046Z,92.10
2018-12-21T13:43:31.984Z,92.10
2018-12-21T13:45:58.925Z,92.10
2018-12-21T13:48:25.909Z,92.20
2018-12-21T13:50:53.041Z,92.20
2018-12-21T13:53:20.008Z,92.30
2018-12-21T13:55:46.970Z,92.30
2018-12-21T13:58:13.913Z,92.40
2018-12-21T14:00:40.885Z,92.30
2018-12-21T14:03:07.856Z,92.50
2018-12-21T14:05:34.800Z,92.50
2018-12-21T14:08:01.772Z,92.50
2018-12-21T14:10:28.746Z,92.60
2018-12-21T14:12:55.752Z,92.60
2018-12-21T14:15:23.430Z,92.70
2018-12-21T14:17:50.522Z,92.70
2018-12-21T14:20:17.547Z,92.70
2018-12-21T14:22:44.542Z,92.80
2018-12-21T14:25:11.574Z,92.70
2018-12-21T14:27:38.622Z,92.80
2018-12-21T14:30:07.293Z,92.80
2018-12-21T14:32:34.246Z,92.80
2018-12-21T14:35:01.242Z,92.90
2018-12-21T14:37:28.258Z,92.80
2018-12-21T14:39:56.662Z,92.80
2018-12-21T14:42:23.529Z,92.90
2018-12-21T14:44:50.516Z,92.80
2018-12-21T14:47:17.518Z,93.00
2018-12-21T14:49:44.516Z,93.00
2018-12-21T14:52:12.073Z,92.90
2018-12-21T14:54:39.184Z,92.90
2018-12-21T14:57:06.250Z,92.90
2018-12-21T14:59:33.324Z,92.70
2018-12-21T15:02:00.574Z,92.70
2018-12-21T15:04:27.653Z,92.60
2018-12-21T15:06:54.798Z,92.90
2018-12-21T15:09:21.885Z,92.50
2018-12-21T15:11:48.976Z,92.60
2018-12-21T15:14:16.055Z,92.60
2018-12-21T15:16:43.060Z,92.70
2018-12-21T15:19:10.025Z,92.60
2018-12-21T15:21:37.001Z,92.60
2018-12-21T15:24:04.002Z,92.70
2018-12-21T15:26:31.053Z,92.50
2018-12-21T15:28:58.020Z,92.50
2018-12-21T15:31:24.995Z,92.50
2018-12-21T15:33:51.997Z,92.80
2018-12-21T15:36:18.961Z,92.50
2018-12-21T15:38:45.940Z,92.90
2018-12-21T15:41:12.899Z,93.10
2018-12-21T15:43:39.848Z,92.90
2018-12-21T15:46:06.836Z,92.80
2018-12-21T15:48:33.810Z,92.70
2018-12-21T15:51:00.768Z,92.70
2018-12-21T15:53:28.075Z,92.80
2018-12-21T15:55:55.185Z,93.00
2018-12-21T15:58:22.029Z,92.90
2018-12-21T16:00:48.999Z,92.70
2018-12-21T16:03:16.004Z,92.60
2018-12-21T16:05:42.980Z,92.50
2018-12-21T16:08:09.960Z,92.50
2018-12-21T16:10:37.398Z,92.40
2018-12-21T16:13:04.356Z,92.20
2018-12-21T16:15:31.353Z,92.10
2018-12-21T16:17:58.293Z,91.90
2018-12-21T16:20:25.238Z,91.90
2018-12-21T16:22:53.197Z,91.60
2018-12-21T16:25:20.148Z,91.90
2018-12-21T16:27:47.089Z,91.80
2018-12-21T16:30:14.169Z,91.70
2018-12-21T16:32:41.138Z,91.50
2018-12-21T16:35:08.103Z,91.60
2018-12-21T16:37:35.100Z,91.60
2018-12-21T16:40:02.075Z,91.60
2018-12-21T16:42:29.028Z,91.50
2018-12-21T16:44:55.985Z,91.50
2018-12-21T16:47:22.944Z,91.50
2018-12-21T16:49:49.891Z,91.50
2018-12-21T16:52:16.855Z,91.50
2018-12-21T16:54:44.357Z,91.50
2018-12-21T16:57:11.316Z,91.30
2018-12-21T16:59:38.285Z,91.30
2018-12-21T17:02:05.271Z,91.30
2018-12-21T17:04:32.216Z,91.20
2018-12-21T17:06:59.169Z,91.10
2018-12-21T17:09:26.467Z,90.90
2018-12-21T17:11:53.521Z,90.90
2018-12-21T17:14:20.535Z,90.80
2018-12-21T17:16:47.488Z,90.70
2018-12-21T17:19:18.023Z,90.40
2018-12-21T17:21:45.020Z,90.50
2018-12-21T17:24:12.242Z,90.50
2018-12-21T17:26:39.344Z,90.40
2018-12-21T17:29:06.356Z,90.40
2018-12-21T17:31:33.316Z,90.40
2018-12-21T17:34:00.257Z,90.50
2018-12-21T17:36:27.260Z,90.30
2018-12-21T17:38:54.241Z,90.70
2018-12-21T17:41:21.200Z,90.40
2018-12-21T17:43:48.197Z,90.60
2018-12-21T17:46:15.140Z,90.10
2018-12-21T17:48:42.185Z,90.10
2018-12-21T17:51:09.159Z,90.00
2018-12-21T17:53:36.080Z,89.90
2018-12-21T17:56:03.689Z,90.00
2018-12-21T17:58:30.695Z,89.50
2018-12-21T18:00:57.675Z,89.70
2018-12-21T18:03:33.452Z,89.80
2018-12-21T18:06:00.384Z,89.70
2018-12-21T18:08:27.361Z,89.60
2018-12-21T18:10:54.341Z,89.70
2018-12-21T18:13:21.286Z,89.50
2018-12-21T18:15:48.300Z,89.60
2018-12-21T18:18:15.289Z,89.40
2018-12-21T18:20:42.241Z,89.20
2018-12-21T18:23:10.894Z,89.30
2018-12-21T18:25:37.911Z,89.20
2018-12-21T18:28:10.740Z,89.20
2018-12-21T18:30:43.028Z,89.30
2018-12-21T18:33:11.895Z,89.10
2018-12-21T18:35:38.887Z,89.30
2018-12-21T18:38:10.469Z,89.00
2018-12-21T18:40:37.429Z,89.40
2018-12-21T18:43:04.365Z,89.40
2018-12-21T18:45:31.327Z,89.50
2018-12-21T18:47:58.318Z,89.40
2018-12-21T18:50:26.552Z,89.50
2018-12-21T18:52:53.530Z,89.40
2018-12-21T18:55:20.492Z,89.20
2018-12-21T18:57:47.868Z,89.20
2018-12-21T19:00:15.980Z,89.00
2018-12-21T19:02:42.968Z,89.10
2018-12-21T19:05:09.916Z,89.00
2018-12-21T19:07:36.904Z,89.40
2018-12-21T19:10:05.388Z,89.60
2018-12-21T19:12:32.336Z,89.30
2018-12-21T19:14:59.292Z,89.30
2018-12-21T19:17:26.236Z,89.30
2018-12-21T19:19:53.202Z,89.40
2018-12-21T19:22:20.165Z,89.40
2018-12-21T19:24:47.109Z,89.40
2018-12-21T19:27:14.044Z,89.60
2018-12-21T19:29:41.056Z,89.60
2018-12-21T19:32:07.995Z,89.80
2018-12-21T19:34:34.949Z,89.60
2018-12-21T19:37:01.924Z,89.70
2018-12-21T19:39:28.896Z,89.90
2018-12-21T19:41:55.847Z,90.00
2018-12-21T19:44:22.817Z,89.90
2018-12-21T19:46:49.907Z,90.00
2018-12-21T19:49:16.842Z,90.00
2018-12-21T19:51:43.819Z,90.10
2018-12-21T19:54:15.426Z,89.90
2018-12-21T19:56:55.297Z,89.90
2018-12-21T19:59:22.298Z,89.80
2018-12-21T20:01:49.256Z,89.80
2018-12-21T20:04:16.189Z,90.00
2018-12-21T20:06:43.182Z,90.00
2018-12-21T20:09:10.136Z,89.90
2018-12-21T20:11:37.063Z,89.80
2018-12-21T20:14:04.014Z,90.30
2018-12-21T20:16:30.968Z,90.00
2018-12-21T20:18:57.898Z,90.00
2018-12-21T20:21:24.862Z,90.10
2018-12-21T20:23:51.823Z,90.10
2018-12-21T20:26:18.755Z,90.00
2018-12-21T20:28:45.741Z,90.50
2018-12-21T20:31:12.819Z,90.00
2018-12-21T20:33:39.784Z,90.10
2018-12-21T20:36:06.755Z,90.20
2018-12-21T20:38:33.721Z,90.10
2018-12-21T20:41:04.453Z,90.20
2018-12-21T20:43:31.408Z,90.20
2018-12-21T20:45:58.382Z,89.70
2018-12-21T20:48:25.344Z,90.30
2018-12-21T20:50:52.283Z,90.20
2018-12-21T20:53:19.231Z,90.10
2018-12-21T20:55:46.828Z,90.20
2018-12-21T20:58:23.534Z,90.10
2018-12-21T21:00:50.476Z,90.20
2018-12-21T21:03:17.449Z,90.20
2018-12-21T21:05:44.406Z,90.10
2018-12-21T21:08:11.365Z,90.20
2018-12-21T21:10:38.311Z,90.20
2018-12-21T21:13:05.301Z,90.20
2018-12-21T21:15:32.280Z,90.30
2018-12-21T21:17:59.250Z,90.30
2018-12-21T21:20:26.239Z,90.80
2018-12-21T21:22:53.182Z,91.10
2018-12-21T21:25:20.149Z,91.20
2018-12-21T21:27:47.107Z,91.20
2018-12-21T21:30:16.809Z,91.10
2018-12-21T21:32:43.785Z,91.10
2018-12-21T21:35:10.835Z,91.10
2018-12-21T21:37:37.749Z,91.10
2018-12-21T21:40:07.668Z,90.90
2018-12-21T21:42:34.635Z,91.00
2018-12-21T21:45:01.569Z,91.00
2018-12-21T21:47:28.511Z,91.00
2018-12-21T21:49:55.502Z,91.00
2018-12-21T21:52:22.456Z,90.80
2018-12-21T21:54:49.436Z,90.90
2018-12-21T21:57:16.941Z,90.90
2018-12-21T21:59:43.904Z,92.30
2018-12-21T22:02:10.867Z,92.80
2018-12-21T22:04:37.832Z,93.10
2018-12-21T22:07:04.803Z,93.50
2018-12-21T22:09:31.747Z,92.80
2018-12-21T22:12:00.177Z,92.70
2018-12-21T22:14:25.681Z,93.00
2018-12-21T22:16:52.629Z,92.70
2018-12-21T22:19:19.604Z,92.70
2018-12-21T22:21:46.544Z,92.80
2018-12-21T22:24:13.482Z,92.70
2018-12-21T22:26:40.430Z,92.80
2018-12-21T22:29:07.373Z,92.50
2018-12-21T22:31:34.341Z,92.60
2018-12-21T22:34:01.298Z,92.60
2018-12-21T22:36:33.928Z,93.00
2018-12-21T22:39:00.862Z,93.10
2018-12-21T22:41:27.921Z,93.20
2018-12-21T22:43:54.860Z,93.10
2018-12-21T22:46:21.816Z,93.10
2018-12-21T22:48:48.772Z,92.90
2018-12-21T22:51:15.708Z,92.90
2018-12-21T22:53:42.661Z,93.00
2018-12-21T22:56:09.614Z,93.30
2018-12-21T22:58:36.717Z,93.00
2018-12-21T23:01:03.655Z,93.00
2018-12-21T23:03:30.614Z,92.90
2018-12-21T23:05:57.589Z,92.90
2018-12-21T23:08:24.544Z,92.90
2018-12-21T23:10:51.541Z,92.90
2018-12-21T23:13:18.513Z,92.80
2018-12-21T23:15:45.505Z,92.70
2018-12-21T23:18:12.504Z,92.70
2018-12-21T23:20:39.478Z,92.70
2018-12-21T23:23:06.412Z,92.80
2018-12-21T23:25:33.376Z,92.50
2018-12-21T23:28:05.013Z,92.60
2018-12-21T23:30:27.351Z,92.70
2018-12-21T23:32:54.304Z,92.90
2018-12-21T23:35:21.241Z,93.10
2018-12-21T23:37:48.192Z,93.20
2018-12-21T23:40:15.489Z,93.30
2018-12-21T23:42:42.117Z,93.20
2018-12-21T23:45:09.064Z,93.30
2018-12-21T23:47:36.022Z,93.20
2018-12-21T23:50:03.220Z,93.30
2018-12-21T23:52:30.153Z,93.30
2018-12-21T23:54:57.104Z,93.30
2018-12-21T23:57:24.049Z,93.30
2018-12-21T23:59:51.472Z,93.20
